Airfield :
LOGIN :

Register | Disclaimer

   EN    FR    IT 

 










Legend :    VFR   Marginal VFR   IFR   Intensive IFR   Very Intensive IFR
Visi :
Ceiling :
>= 8 km
>= 3000ft
5 to 8 km
1000 to 3000 ft
1500m to 5 km
500 to 1000 ft
800 to 1500m
200 to 500 ft
< 800m
< 200 ft
Symbols :   Thunderstorms  Fog  Heavy snow  Heavy precipitations  Wind > 20 kt
SIGMETs :     Misc.  Thunderstorms  Icing  Turbulence  Mountain Waves  Volcanic Ashes







- Airport Elevation : 1260 ft
- IATA code : LDE
- Download approach charts


LFBT - Tarbes / Ossun

CURRENT METAR :
  • 222330Z AUTO 29008KT 7000 BKN005 OVC010 18/17 Q1022 BECMG OVC010

EXPIRED METARs :
  • 222300Z AUTO 28007KT 7000 BKN004 OVC011 18/17 Q1022 BECMG OVC010
  • 222230Z AUTO 28008KT 9999 OVC005 18/17 Q1022 BECMG OVC010
  • 222200Z AUTO 28007KT 250V310 6000 OVC005 19/18 Q1022 BECMG OVC010
  • 222130Z AUTO 28006KT 250V320 9999 BKN005 OVC009 19/18 Q1022 BECMG OVC010
  • 222100Z AUTO 27009KT 9999 BKN005 OVC012 19/18 Q1021 BECMG OVC010

TAF AMD TAF LFBT
Valid from the 23 at 00:00 until the 24 at 00:00 UTC


222340Z 2300/2324 28010KT 9999 OVC010
TEMPO 2300/2308 4000 BR BKN004
BECMG 2311/2313 35010KT SCT020
BECMG 2318/2320 BKN012
BECMG 2320/2322 OVC005
No reported NOTAMs for that airfield.



MET'MAP, your aeronautical weather chart ! - Copyright ORBIFLY December 2007 - Disclaimer

ORBIFLY MET'MAP TEAM :

Programming & Development : Alexandra Zaïnal
Concept & Development : Baudouin d'Aumeries
Co-Development & Prog : Marc-Olivier Méhu
Technical & hardware support : Manuel Goepfert

Contact : metmap@orbifly.com




SOURCES & CREDITS :

   NOAA